sensor_id;sensor_type;location;lat;lon;timestamp;P1;durP1;ratioP1;P2;durP2;ratioP2
29120;SDS011;16191;49.548;8.658;2023-06-22T00:00:54;4.85;;;4.07;;
29120;SDS011;16191;49.548;8.658;2023-06-22T00:03:21;7.80;;;3.97;;
29120;SDS011;16191;49.548;8.658;2023-06-22T00:05:49;10.02;;;3.88;;
29120;SDS011;16191;49.548;8.658;2023-06-22T00:08:17;7.07;;;4.07;;
29120;SDS011;16191;49.548;8.658;2023-06-22T00:10:45;6.65;;;4.25;;
29120;SDS011;16191;49.548;8.658;2023-06-22T00:13:12;7.18;;;4.15;;
29120;SDS011;16191;49.548;8.658;2023-06-22T00:15:40;5.78;;;3.88;;
29120;SDS011;16191;49.548;8.658;2023-06-22T00:18:07;7.65;;;4.22;;
29120;SDS011;16191;49.548;8.658;2023-06-22T00:20:35;10.20;;;3.67;;
29120;SDS011;16191;49.548;8.658;2023-06-22T00:23:03;7.78;;;4.30;;
29120;SDS011;16191;49.548;8.658;2023-06-22T00:25:35;6.88;;;4.07;;
29120;SDS011;16191;49.548;8.658;2023-06-22T00:28:04;4.90;;;4.07;;
29120;SDS011;16191;49.548;8.658;2023-06-22T00:30:31;7.10;;;3.95;;
29120;SDS011;16191;49.548;8.658;2023-06-22T00:32:58;5.63;;;3.85;;
29120;SDS011;16191;49.548;8.658;2023-06-22T00:35:26;5.22;;;3.67;;
29120;SDS011;16191;49.548;8.658;2023-06-22T00:37:55;10.37;;;4.27;;
29120;SDS011;16191;49.548;8.658;2023-06-22T00:40:28;6.78;;;4.60;;
29120;SDS011;16191;49.548;8.658;2023-06-22T00:42:56;5.82;;;4.45;;
29120;SDS011;16191;49.548;8.658;2023-06-22T00:45:23;7.95;;;4.97;;
29120;SDS011;16191;49.548;8.658;2023-06-22T00:47:51;8.60;;;4.43;;
29120;SDS011;16191;49.548;8.658;2023-06-22T00:50:20;8.40;;;4.85;;
29120;SDS011;16191;49.548;8.658;2023-06-22T00:52:52;6.57;;;4.53;;
29120;SDS011;16191;49.548;8.658;2023-06-22T00:55:20;8.23;;;5.50;;
29120;SDS011;16191;49.548;8.658;2023-06-22T00:57:48;10.52;;;5.07;;
29120;SDS011;16191;49.548;8.658;2023-06-22T01:00:15;9.68;;;6.20;;
29120;SDS011;16191;49.548;8.658;2023-06-22T01:02:43;10.07;;;6.25;;
29120;SDS011;16191;49.548;8.658;2023-06-22T01:05:13;16.95;;;6.60;;
29120;SDS011;16191;49.548;8.658;2023-06-22T01:12:59;12.95;;;7.00;;
29120;SDS011;16191;49.548;8.658;2023-06-22T01:15:57;11.10;;;6.70;;
29120;SDS011;16191;49.548;8.658;2023-06-22T01:18:29;14.60;;;7.13;;
29120;SDS011;16191;49.548;8.658;2023-06-22T01:20:57;15.07;;;7.38;;
29120;SDS011;16191;49.548;8.658;2023-06-22T01:23:42;10.48;;;7.40;;
29120;SDS011;16191;49.548;8.658;2023-06-22T01:29:10;9.65;;;7.72;;
29120;SDS011;16191;49.548;8.658;2023-06-22T01:31:40;11.48;;;7.60;;
29120;SDS011;16191;49.548;8.658;2023-06-22T01:34:10;9.93;;;7.78;;
29120;SDS011;16191;49.548;8.658;2023-06-22T01:36:38;11.38;;;7.30;;
29120;SDS011;16191;49.548;8.658;2023-06-22T01:39:05;10.45;;;8.00;;
29120;SDS011;16191;49.548;8.658;2023-06-22T01:41:53;11.02;;;8.18;;
29120;SDS011;16191;49.548;8.658;2023-06-22T01:44:40;9.75;;;7.38;;
29120;SDS011;16191;49.548;8.658;2023-06-22T01:47:28;8.35;;;7.05;;
29120;SDS011;16191;49.548;8.658;2023-06-22T01:50:15;12.45;;;7.45;;
29120;SDS011;16191;49.548;8.658;2023-06-22T01:53:01;12.93;;;7.50;;
29120;SDS011;16191;49.548;8.658;2023-06-22T01:55:48;12.32;;;8.15;;
29120;SDS011;16191;49.548;8.658;2023-06-22T01:58:15;11.65;;;6.75;;
29120;SDS011;16191;49.548;8.658;2023-06-22T02:00:51;11.98;;;7.65;;
29120;SDS011;16191;49.548;8.658;2023-06-22T02:03:23;10.00;;;7.22;;
29120;SDS011;16191;49.548;8.658;2023-06-22T02:05:58;9.95;;;6.93;;
29120;SDS011;16191;49.548;8.658;2023-06-22T02:08:30;11.18;;;5.93;;
29120;SDS011;16191;49.548;8.658;2023-06-22T02:11:02;10.98;;;6.07;;
29120;SDS011;16191;49.548;8.658;2023-06-22T02:13:29;9.25;;;5.70;;
29120;SDS011;16191;49.548;8.658;2023-06-22T02:15:57;8.02;;;5.63;;
29120;SDS011;16191;49.548;8.658;2023-06-22T02:18:23;11.43;;;6.32;;
29120;SDS011;16191;49.548;8.658;2023-06-22T02:20:51;9.20;;;6.40;;
29120;SDS011;16191;49.548;8.658;2023-06-22T02:23:18;10.30;;;6.22;;
29120;SDS011;16191;49.548;8.658;2023-06-22T02:25:45;11.93;;;5.63;;
29120;SDS011;16191;49.548;8.658;2023-06-22T02:28:12;9.98;;;6.25;;
29120;SDS011;16191;49.548;8.658;2023-06-22T02:30:38;8.63;;;5.65;;
29120;SDS011;16191;49.548;8.658;2023-06-22T02:33:06;10.38;;;5.70;;
29120;SDS011;16191;49.548;8.658;2023-06-22T02:35:33;11.85;;;6.38;;
29120;SDS011;16191;49.548;8.658;2023-06-22T02:38:02;10.27;;;5.90;;
29120;SDS011;16191;49.548;8.658;2023-06-22T02:40:30;10.35;;;5.15;;
29120;SDS011;16191;49.548;8.658;2023-06-22T02:42:57;8.52;;;5.97;;
29120;SDS011;16191;49.548;8.658;2023-06-22T02:45:28;8.32;;;5.60;;
29120;SDS011;16191;49.548;8.658;2023-06-22T02:47:55;9.32;;;5.90;;
29120;SDS011;16191;49.548;8.658;2023-06-22T02:50:22;10.60;;;5.32;;
29120;SDS011;16191;49.548;8.658;2023-06-22T02:52:50;7.85;;;5.75;;
29120;SDS011;16191;49.548;8.658;2023-06-22T02:55:17;7.68;;;5.28;;
29120;SDS011;16191;49.548;8.658;2023-06-22T02:57:51;8.05;;;6.00;;
29120;SDS011;16191;49.548;8.658;2023-06-22T03:00:19;8.25;;;6.00;;
29120;SDS011;16191;49.548;8.658;2023-06-22T03:02:47;9.10;;;5.85;;
29120;SDS011;16191;49.548;8.658;2023-06-22T03:05:15;7.47;;;5.15;;
29120;SDS011;16191;49.548;8.658;2023-06-22T03:07:45;8.50;;;5.25;;
29120;SDS011;16191;49.548;8.658;2023-06-22T03:10:12;10.27;;;5.05;;
29120;SDS011;16191;49.548;8.658;2023-06-22T03:12:40;7.40;;;5.78;;
29120;SDS011;16191;49.548;8.658;2023-06-22T03:15:09;7.80;;;5.75;;
29120;SDS011;16191;49.548;8.658;2023-06-22T03:17:37;10.65;;;6.43;;
29120;SDS011;16191;49.548;8.658;2023-06-22T03:20:06;7.35;;;6.03;;
29120;SDS011;16191;49.548;8.658;2023-06-22T03:22:36;9.18;;;6.28;;
29120;SDS011;16191;49.548;8.658;2023-06-22T03:25:04;8.88;;;6.18;;
29120;SDS011;16191;49.548;8.658;2023-06-22T03:27:38;8.38;;;5.68;;
29120;SDS011;16191;49.548;8.658;2023-06-22T03:30:07;8.52;;;6.00;;
29120;SDS011;16191;49.548;8.658;2023-06-22T03:32:35;7.28;;;5.72;;
29120;SDS011;16191;49.548;8.658;2023-06-22T03:35:03;8.32;;;6.45;;
29120;SDS011;16191;49.548;8.658;2023-06-22T03:37:30;8.63;;;6.55;;
29120;SDS011;16191;49.548;8.658;2023-06-22T03:39:56;7.53;;;6.75;;
29120;SDS011;16191;49.548;8.658;2023-06-22T03:42:23;8.27;;;6.80;;
29120;SDS011;16191;49.548;8.658;2023-06-22T03:44:50;8.18;;;6.35;;
29120;SDS011;16191;49.548;8.658;2023-06-22T03:47:17;9.95;;;6.95;;
29120;SDS011;16191;49.548;8.658;2023-06-22T03:49:44;10.05;;;6.63;;
29120;SDS011;16191;49.548;8.658;2023-06-22T03:52:10;13.25;;;7.80;;
29120;SDS011;16191;49.548;8.658;2023-06-22T03:54:37;7.55;;;6.03;;
29120;SDS011;16191;49.548;8.658;2023-06-22T03:57:04;10.23;;;5.75;;
29120;SDS011;16191;49.548;8.658;2023-06-22T03:59:31;7.28;;;5.43;;
29120;SDS011;16191;49.548;8.658;2023-06-22T04:01:58;8.43;;;5.72;;
29120;SDS011;16191;49.548;8.658;2023-06-22T04:04:25;6.70;;;5.43;;
29120;SDS011;16191;49.548;8.658;2023-06-22T04:06:52;7.38;;;5.90;;
29120;SDS011;16191;49.548;8.658;2023-06-22T04:09:18;6.63;;;5.35;;
29120;SDS011;16191;49.548;8.658;2023-06-22T04:11:45;8.13;;;5.78;;
29120;SDS011;16191;49.548;8.658;2023-06-22T04:14:11;8.50;;;5.50;;
29120;SDS011;16191;49.548;8.658;2023-06-22T04:16:38;6.63;;;5.32;;
29120;SDS011;16191;49.548;8.658;2023-06-22T04:19:05;8.73;;;5.82;;
29120;SDS011;16191;49.548;8.658;2023-06-22T04:21:31;7.40;;;6.00;;
29120;SDS011;16191;49.548;8.658;2023-06-22T04:23:58;7.35;;;5.82;;
29120;SDS011;16191;49.548;8.658;2023-06-22T04:26:24;8.52;;;5.90;;
29120;SDS011;16191;49.548;8.658;2023-06-22T04:28:51;9.18;;;5.65;;
29120;SDS011;16191;49.548;8.658;2023-06-22T04:33:48;10.38;;;5.63;;
29120;SDS011;16191;49.548;8.658;2023-06-22T04:36:17;7.10;;;5.47;;
29120;SDS011;16191;49.548;8.658;2023-06-22T04:38:44;11.63;;;5.03;;
29120;SDS011;16191;49.548;8.658;2023-06-22T04:41:11;8.55;;;6.03;;
29120;SDS011;16191;49.548;8.658;2023-06-22T04:43:40;6.40;;;5.72;;
29120;SDS011;16191;49.548;8.658;2023-06-22T04:46:07;8.23;;;6.55;;
29120;SDS011;16191;49.548;8.658;2023-06-22T04:48:33;9.82;;;6.00;;
29120;SDS011;16191;49.548;8.658;2023-06-22T04:51:01;7.93;;;6.32;;
29120;SDS011;16191;49.548;8.658;2023-06-22T04:53:30;7.55;;;6.68;;
29120;SDS011;16191;49.548;8.658;2023-06-22T04:55:57;9.25;;;6.45;;
29120;SDS011;16191;49.548;8.658;2023-06-22T04:58:24;8.18;;;6.18;;
29120;SDS011;16191;49.548;8.658;2023-06-22T05:00:55;8.38;;;6.20;;
29120;SDS011;16191;49.548;8.658;2023-06-22T05:03:24;8.85;;;5.70;;
29120;SDS011;16191;49.548;8.658;2023-06-22T05:05:52;8.77;;;5.83;;
29120;SDS011;16191;49.548;8.658;2023-06-22T05:08:20;9.27;;;6.03;;
29120;SDS011;16191;49.548;8.658;2023-06-22T05:10:46;7.57;;;6.32;;
29120;SDS011;16191;49.548;8.658;2023-06-22T05:13:29;10.23;;;6.47;;
29120;SDS011;16191;49.548;8.658;2023-06-22T05:15:56;10.00;;;6.22;;
29120;SDS011;16191;49.548;8.658;2023-06-22T05:18:28;12.48;;;6.80;;
29120;SDS011;16191;49.548;8.658;2023-06-22T05:20:56;9.27;;;6.93;;
29120;SDS011;16191;49.548;8.658;2023-06-22T05:23:23;9.75;;;6.47;;
29120;SDS011;16191;49.548;8.658;2023-06-22T05:25:51;10.85;;;6.60;;
29120;SDS011;16191;49.548;8.658;2023-06-22T05:28:17;10.25;;;6.55;;
29120;SDS011;16191;49.548;8.658;2023-06-22T05:31:06;13.20;;;6.45;;
29120;SDS011;16191;49.548;8.658;2023-06-22T05:33:32;10.77;;;6.53;;
29120;SDS011;16191;49.548;8.658;2023-06-22T05:35:59;11.48;;;6.03;;
29120;SDS011;16191;49.548;8.658;2023-06-22T05:38:26;9.93;;;6.63;;
29120;SDS011;16191;49.548;8.658;2023-06-22T05:40:52;8.48;;;6.35;;
29120;SDS011;16191;49.548;8.658;2023-06-22T05:43:19;11.45;;;6.35;;
29120;SDS011;16191;49.548;8.658;2023-06-22T05:45:45;12.60;;;6.65;;
29120;SDS011;16191;49.548;8.658;2023-06-22T05:48:12;13.80;;;6.35;;
29120;SDS011;16191;49.548;8.658;2023-06-22T05:50:39;14.20;;;6.85;;
29120;SDS011;16191;49.548;8.658;2023-06-22T05:53:06;8.88;;;6.40;;
29120;SDS011;16191;49.548;8.658;2023-06-22T05:55:33;8.85;;;6.50;;
29120;SDS011;16191;49.548;8.658;2023-06-22T05:58:01;10.15;;;6.50;;
29120;SDS011;16191;49.548;8.658;2023-06-22T06:00:29;13.25;;;6.55;;
29120;SDS011;16191;49.548;8.658;2023-06-22T06:02:56;10.70;;;7.05;;
29120;SDS011;16191;49.548;8.658;2023-06-22T06:05:23;14.35;;;6.32;;
29120;SDS011;16191;49.548;8.658;2023-06-22T06:07:51;12.00;;;6.20;;
29120;SDS011;16191;49.548;8.658;2023-06-22T06:10:18;9.13;;;6.32;;
29120;SDS011;16191;49.548;8.658;2023-06-22T06:12:45;15.05;;;6.53;;
29120;SDS011;16191;49.548;8.658;2023-06-22T06:15:11;9.57;;;6.30;;
29120;SDS011;16191;49.548;8.658;2023-06-22T06:17:45;10.68;;;6.25;;
29120;SDS011;16191;49.548;8.658;2023-06-22T06:20:21;10.57;;;5.63;;
29120;SDS011;16191;49.548;8.658;2023-06-22T06:22:49;11.38;;;6.55;;
29120;SDS011;16191;49.548;8.658;2023-06-22T06:25:16;9.02;;;6.28;;
29120;SDS011;16191;49.548;8.658;2023-06-22T06:27:44;11.02;;;5.75;;
29120;SDS011;16191;49.548;8.658;2023-06-22T06:30:13;8.95;;;5.75;;
29120;SDS011;16191;49.548;8.658;2023-06-22T06:32:40;9.85;;;6.28;;
29120;SDS011;16191;49.548;8.658;2023-06-22T06:35:08;7.25;;;6.10;;
29120;SDS011;16191;49.548;8.658;2023-06-22T06:37:36;12.30;;;5.78;;
29120;SDS011;16191;49.548;8.658;2023-06-22T06:40:07;13.70;;;6.72;;
29120;SDS011;16191;49.548;8.658;2023-06-22T06:42:40;10.52;;;6.50;;
29120;SDS011;16191;49.548;8.658;2023-06-22T06:45:12;7.45;;;4.95;;
29120;SDS011;16191;49.548;8.658;2023-06-22T06:47:39;7.25;;;4.78;;
29120;SDS011;16191;49.548;8.658;2023-06-22T06:50:06;12.20;;;4.95;;
29120;SDS011;16191;49.548;8.658;2023-06-22T06:52:34;7.70;;;5.00;;
29120;SDS011;16191;49.548;8.658;2023-06-22T06:55:04;10.00;;;5.20;;
29120;SDS011;16191;49.548;8.658;2023-06-22T06:57:34;9.20;;;5.10;;
29120;SDS011;16191;49.548;8.658;2023-06-22T07:00:01;6.70;;;4.97;;
29120;SDS011;16191;49.548;8.658;2023-06-22T07:02:27;7.07;;;4.65;;
29120;SDS011;16191;49.548;8.658;2023-06-22T07:04:54;5.85;;;4.80;;
29120;SDS011;16191;49.548;8.658;2023-06-22T07:07:23;7.95;;;4.22;;
29120;SDS011;16191;49.548;8.658;2023-06-22T07:09:50;8.10;;;4.68;;
29120;SDS011;16191;49.548;8.658;2023-06-22T07:12:16;7.53;;;4.45;;
29120;SDS011;16191;49.548;8.658;2023-06-22T07:14:43;10.40;;;4.55;;
29120;SDS011;16191;49.548;8.658;2023-06-22T07:17:09;7.20;;;4.40;;
29120;SDS011;16191;49.548;8.658;2023-06-22T07:19:36;8.18;;;4.38;;
29120;SDS011;16191;49.548;8.658;2023-06-22T07:22:03;6.20;;;4.03;;
29120;SDS011;16191;49.548;8.658;2023-06-22T07:24:29;6.97;;;4.20;;
29120;SDS011;16191;49.548;8.658;2023-06-22T07:26:56;9.27;;;4.35;;
29120;SDS011;16191;49.548;8.658;2023-06-22T07:29:25;7.55;;;4.35;;
29120;SDS011;16191;49.548;8.658;2023-06-22T07:31:53;5.25;;;4.03;;
29120;SDS011;16191;49.548;8.658;2023-06-22T07:34:19;5.18;;;3.70;;
29120;SDS011;16191;49.548;8.658;2023-06-22T07:36:46;6.72;;;4.43;;
29120;SDS011;16191;49.548;8.658;2023-06-22T07:39:12;8.02;;;3.67;;
29120;SDS011;16191;49.548;8.658;2023-06-22T07:41:39;7.80;;;3.65;;
29120;SDS011;16191;49.548;8.658;2023-06-22T07:44:09;5.50;;;3.75;;
29120;SDS011;16191;49.548;8.658;2023-06-22T07:46:35;6.07;;;3.75;;
29120;SDS011;16191;49.548;8.658;2023-06-22T07:49:02;6.60;;;3.72;;
29120;SDS011;16191;49.548;8.658;2023-06-22T07:51:28;7.57;;;4.15;;
29120;SDS011;16191;49.548;8.658;2023-06-22T07:53:55;6.00;;;4.22;;
29120;SDS011;16191;49.548;8.658;2023-06-22T07:56:22;8.63;;;4.25;;
29120;SDS011;16191;49.548;8.658;2023-06-22T07:58:48;6.03;;;4.03;;
29120;SDS011;16191;49.548;8.658;2023-06-22T08:01:15;5.90;;;3.72;;
29120;SDS011;16191;49.548;8.658;2023-06-22T08:03:41;5.97;;;4.20;;
29120;SDS011;16191;49.548;8.658;2023-06-22T08:06:08;5.50;;;3.92;;
29120;SDS011;16191;49.548;8.658;2023-06-22T08:08:36;6.65;;;4.15;;
29120;SDS011;16191;49.548;8.658;2023-06-22T08:11:03;7.50;;;4.00;;
29120;SDS011;16191;49.548;8.658;2023-06-22T08:13:30;4.60;;;3.42;;
29120;SDS011;16191;49.548;8.658;2023-06-22T08:15:56;5.07;;;3.35;;
29120;SDS011;16191;49.548;8.658;2023-06-22T08:18:23;7.80;;;3.88;;
29120;SDS011;16191;49.548;8.658;2023-06-22T08:20:49;7.38;;;3.90;;
29120;SDS011;16191;49.548;8.658;2023-06-22T08:23:16;7.85;;;3.55;;
29120;SDS011;16191;49.548;8.658;2023-06-22T08:25:43;8.68;;;4.00;;
29120;SDS011;16191;49.548;8.658;2023-06-22T08:28:10;9.85;;;3.42;;
29120;SDS011;16191;49.548;8.658;2023-06-22T08:30:37;5.85;;;3.88;;
29120;SDS011;16191;49.548;8.658;2023-06-22T08:33:03;5.78;;;3.42;;
29120;SDS011;16191;49.548;8.658;2023-06-22T08:35:30;5.88;;;3.47;;
29120;SDS011;16191;49.548;8.658;2023-06-22T08:37:57;6.53;;;3.65;;
29120;SDS011;16191;49.548;8.658;2023-06-22T08:40:24;8.15;;;3.78;;
29120;SDS011;16191;49.548;8.658;2023-06-22T08:42:51;10.07;;;3.92;;
29120;SDS011;16191;49.548;8.658;2023-06-22T08:45:17;11.57;;;4.22;;
29120;SDS011;16191;49.548;8.658;2023-06-22T08:47:44;12.70;;;4.22;;
29120;SDS011;16191;49.548;8.658;2023-06-22T08:50:11;6.47;;;3.90;;
29120;SDS011;16191;49.548;8.658;2023-06-22T08:52:39;5.00;;;3.90;;
29120;SDS011;16191;49.548;8.658;2023-06-22T08:55:11;5.40;;;3.75;;
29120;SDS011;16191;49.548;8.658;2023-06-22T08:57:38;8.07;;;4.05;;
29120;SDS011;16191;49.548;8.658;2023-06-22T09:00:09;6.85;;;4.22;;
29120;SDS011;16191;49.548;8.658;2023-06-22T09:02:44;8.35;;;4.10;;
29120;SDS011;16191;49.548;8.658;2023-06-22T09:05:11;6.38;;;4.07;;
29120;SDS011;16191;49.548;8.658;2023-06-22T09:07:38;9.13;;;4.68;;
29120;SDS011;16191;49.548;8.658;2023-06-22T09:10:05;4.20;;;3.67;;
29120;SDS011;16191;49.548;8.658;2023-06-22T09:12:32;7.32;;;4.10;;
29120;SDS011;16191;49.548;8.658;2023-06-22T09:14:59;7.65;;;4.40;;
29120;SDS011;16191;49.548;8.658;2023-06-22T09:17:27;9.02;;;4.07;;
29120;SDS011;16191;49.548;8.658;2023-06-22T09:19:53;10.48;;;3.70;;
29120;SDS011;16191;49.548;8.658;2023-06-22T09:22:20;7.28;;;3.40;;
29120;SDS011;16191;49.548;8.658;2023-06-22T09:24:47;8.32;;;4.20;;
29120;SDS011;16191;49.548;8.658;2023-06-22T09:27:13;10.55;;;4.10;;
29120;SDS011;16191;49.548;8.658;2023-06-22T09:29:40;7.80;;;3.38;;
29120;SDS011;16191;49.548;8.658;2023-06-22T09:32:06;9.80;;;3.60;;
29120;SDS011;16191;49.548;8.658;2023-06-22T09:34:33;7.28;;;3.08;;
29120;SDS011;16191;49.548;8.658;2023-06-22T09:37:00;10.55;;;3.85;;
29120;SDS011;16191;49.548;8.658;2023-06-22T09:39:27;9.43;;;3.47;;
29120;SDS011;16191;49.548;8.658;2023-06-22T09:41:53;10.80;;;3.92;;
29120;SDS011;16191;49.548;8.658;2023-06-22T09:44:20;9.93;;;3.70;;
29120;SDS011;16191;49.548;8.658;2023-06-22T09:46:46;10.02;;;3.95;;
29120;SDS011;16191;49.548;8.658;2023-06-22T09:49:13;9.13;;;4.03;;
29120;SDS011;16191;49.548;8.658;2023-06-22T09:51:39;7.25;;;3.58;;
29120;SDS011;16191;49.548;8.658;2023-06-22T09:54:06;4.80;;;3.10;;
29120;SDS011;16191;49.548;8.658;2023-06-22T09:56:32;10.77;;;2.90;;
29120;SDS011;16191;49.548;8.658;2023-06-22T09:58:59;9.88;;;3.60;;
29120;SDS011;16191;49.548;8.658;2023-06-22T10:01:43;7.88;;;4.00;;
29120;SDS011;16191;49.548;8.658;2023-06-22T10:04:10;8.05;;;3.88;;
29120;SDS011;16191;49.548;8.658;2023-06-22T10:06:37;12.73;;;3.88;;
29120;SDS011;16191;49.548;8.658;2023-06-22T10:09:07;8.82;;;3.55;;
29120;SDS011;16191;49.548;8.658;2023-06-22T10:11:34;10.57;;;3.95;;
29120;SDS011;16191;49.548;8.658;2023-06-22T10:14:01;11.18;;;3.75;;
29120;SDS011;16191;49.548;8.658;2023-06-22T10:16:30;10.73;;;4.10;;
29120;SDS011;16191;49.548;8.658;2023-06-22T10:18:58;9.18;;;3.95;;
29120;SDS011;16191;49.548;8.658;2023-06-22T10:21:24;11.05;;;3.95;;
29120;SDS011;16191;49.548;8.658;2023-06-22T10:23:53;7.50;;;3.92;;
29120;SDS011;16191;49.548;8.658;2023-06-22T10:26:19;9.02;;;3.70;;
29120;SDS011;16191;49.548;8.658;2023-06-22T10:28:46;9.30;;;4.30;;
29120;SDS011;16191;49.548;8.658;2023-06-22T10:31:13;8.85;;;3.75;;
29120;SDS011;16191;49.548;8.658;2023-06-22T10:33:39;7.78;;;4.05;;
29120;SDS011;16191;49.548;8.658;2023-06-22T10:36:07;8.18;;;3.92;;
29120;SDS011;16191;49.548;8.658;2023-06-22T10:38:34;9.80;;;3.83;;
29120;SDS011;16191;49.548;8.658;2023-06-22T10:41:01;8.23;;;4.03;;
29120;SDS011;16191;49.548;8.658;2023-06-22T10:43:27;7.40;;;3.45;;
29120;SDS011;16191;49.548;8.658;2023-06-22T10:45:54;13.25;;;3.55;;
29120;SDS011;16191;49.548;8.658;2023-06-22T10:48:21;9.05;;;3.90;;
29120;SDS011;16191;49.548;8.658;2023-06-22T10:50:47;13.55;;;3.95;;
29120;SDS011;16191;49.548;8.658;2023-06-22T10:53:14;10.73;;;4.43;;
29120;SDS011;16191;49.548;8.658;2023-06-22T10:55:40;12.23;;;4.20;;
29120;SDS011;16191;49.548;8.658;2023-06-22T10:58:22;12.43;;;4.45;;
29120;SDS011;16191;49.548;8.658;2023-06-22T11:00:49;7.28;;;3.47;;
29120;SDS011;16191;49.548;8.658;2023-06-22T11:03:15;9.63;;;4.10;;
29120;SDS011;16191;49.548;8.658;2023-06-22T11:05:42;9.70;;;4.18;;
29120;SDS011;16191;49.548;8.658;2023-06-22T11:08:08;7.38;;;3.95;;
29120;SDS011;16191;49.548;8.658;2023-06-22T11:10:35;10.13;;;4.00;;
29120;SDS011;16191;49.548;8.658;2023-06-22T11:13:01;8.27;;;4.07;;
29120;SDS011;16191;49.548;8.658;2023-06-22T11:15:30;10.98;;;4.07;;
29120;SDS011;16191;49.548;8.658;2023-06-22T11:17:57;8.38;;;3.67;;
29120;SDS011;16191;49.548;8.658;2023-06-22T11:20:23;13.20;;;4.28;;
29120;SDS011;16191;49.548;8.658;2023-06-22T11:22:50;9.85;;;4.32;;
29120;SDS011;16191;49.548;8.658;2023-06-22T11:25:16;10.40;;;4.07;;
29120;SDS011;16191;49.548;8.658;2023-06-22T11:27:43;6.63;;;3.35;;
29120;SDS011;16191;49.548;8.658;2023-06-22T11:30:09;9.25;;;3.70;;
29120;SDS011;16191;49.548;8.658;2023-06-22T11:32:36;11.00;;;4.10;;
29120;SDS011;16191;49.548;8.658;2023-06-22T11:35:03;8.63;;;4.03;;
29120;SDS011;16191;49.548;8.658;2023-06-22T11:37:30;9.25;;;4.30;;
29120;SDS011;16191;49.548;8.658;2023-06-22T11:39:56;7.38;;;3.75;;
29120;SDS011;16191;49.548;8.658;2023-06-22T11:42:32;10.25;;;4.50;;
29120;SDS011;16191;49.548;8.658;2023-06-22T11:44:59;6.85;;;4.10;;
29120;SDS011;16191;49.548;8.658;2023-06-22T11:47:25;10.82;;;3.85;;
29120;SDS011;16191;49.548;8.658;2023-06-22T11:49:52;11.45;;;4.18;;
29120;SDS011;16191;49.548;8.658;2023-06-22T11:52:19;10.52;;;4.15;;
29120;SDS011;16191;49.548;8.658;2023-06-22T11:54:45;7.68;;;3.50;;
29120;SDS011;16191;49.548;8.658;2023-06-22T11:57:12;8.48;;;4.22;;
29120;SDS011;16191;49.548;8.658;2023-06-22T11:59:39;8.07;;;4.07;;
29120;SDS011;16191;49.548;8.658;2023-06-22T12:02:05;10.90;;;4.07;;
29120;SDS011;16191;49.548;8.658;2023-06-22T12:04:33;6.88;;;3.55;;
29120;SDS011;16191;49.548;8.658;2023-06-22T12:07:00;9.98;;;4.10;;
29120;SDS011;16191;49.548;8.658;2023-06-22T12:09:27;11.05;;;4.32;;
29120;SDS011;16191;49.548;8.658;2023-06-22T12:11:54;9.48;;;4.30;;
29120;SDS011;16191;49.548;8.658;2023-06-22T12:14:21;6.93;;;4.00;;
29120;SDS011;16191;49.548;8.658;2023-06-22T12:16:48;9.13;;;4.22;;
29120;SDS011;16191;49.548;8.658;2023-06-22T12:19:14;8.25;;;4.15;;
29120;SDS011;16191;49.548;8.658;2023-06-22T12:21:41;12.50;;;4.47;;
29120;SDS011;16191;49.548;8.658;2023-06-22T12:24:11;11.15;;;4.00;;
29120;SDS011;16191;49.548;8.658;2023-06-22T12:26:38;10.02;;;3.85;;
29120;SDS011;16191;49.548;8.658;2023-06-22T12:29:04;14.68;;;4.28;;
29120;SDS011;16191;49.548;8.658;2023-06-22T12:31:31;13.38;;;3.83;;
29120;SDS011;16191;49.548;8.658;2023-06-22T12:33:57;15.05;;;4.70;;
29120;SDS011;16191;49.548;8.658;2023-06-22T12:36:24;9.10;;;3.85;;
29120;SDS011;16191;49.548;8.658;2023-06-22T12:38:50;14.02;;;3.60;;
29120;SDS011;16191;49.548;8.658;2023-06-22T12:41:19;9.52;;;4.05;;
29120;SDS011;16191;49.548;8.658;2023-06-22T12:43:46;11.13;;;3.80;;
29120;SDS011;16191;49.548;8.658;2023-06-22T12:46:12;11.52;;;3.67;;
29120;SDS011;16191;49.548;8.658;2023-06-22T12:48:39;10.68;;;4.00;;
29120;SDS011;16191;49.548;8.658;2023-06-22T12:51:09;8.70;;;3.58;;
29120;SDS011;16191;49.548;8.658;2023-06-22T12:53:36;11.93;;;3.97;;
29120;SDS011;16191;49.548;8.658;2023-06-22T12:56:02;16.15;;;3.90;;
29120;SDS011;16191;49.548;8.658;2023-06-22T12:58:29;8.20;;;3.55;;
29120;SDS011;16191;49.548;8.658;2023-06-22T13:00:55;10.48;;;4.32;;
29120;SDS011;16191;49.548;8.658;2023-06-22T13:03:22;14.88;;;3.70;;
29120;SDS011;16191;49.548;8.658;2023-06-22T13:05:51;10.38;;;3.80;;
29120;SDS011;16191;49.548;8.658;2023-06-22T13:08:18;10.27;;;4.05;;
29120;SDS011;16191;49.548;8.658;2023-06-22T13:10:44;9.73;;;3.90;;
29120;SDS011;16191;49.548;8.658;2023-06-22T13:13:11;9.00;;;3.45;;
29120;SDS011;16191;49.548;8.658;2023-06-22T13:15:37;14.57;;;4.63;;
29120;SDS011;16191;49.548;8.658;2023-06-22T13:18:04;18.17;;;4.25;;
29120;SDS011;16191;49.548;8.658;2023-06-22T13:20:30;15.25;;;4.50;;
29120;SDS011;16191;49.548;8.658;2023-06-22T13:22:57;17.63;;;4.75;;
29120;SDS011;16191;49.548;8.658;2023-06-22T13:25:24;16.02;;;4.50;;
29120;SDS011;16191;49.548;8.658;2023-06-22T13:27:53;11.15;;;4.22;;
29120;SDS011;16191;49.548;8.658;2023-06-22T13:30:19;11.30;;;4.10;;
29120;SDS011;16191;49.548;8.658;2023-06-22T13:32:46;13.30;;;4.07;;
29120;SDS011;16191;49.548;8.658;2023-06-22T13:35:30;10.65;;;3.53;;
29120;SDS011;16191;49.548;8.658;2023-06-22T13:38:14;13.05;;;3.75;;
29120;SDS011;16191;49.548;8.658;2023-06-22T13:40:58;11.75;;;3.85;;
29120;SDS011;16191;49.548;8.658;2023-06-22T13:43:26;9.13;;;3.97;;
29120;SDS011;16191;49.548;8.658;2023-06-22T13:45:53;13.20;;;3.63;;
29120;SDS011;16191;49.548;8.658;2023-06-22T13:48:20;13.52;;;3.75;;
29120;SDS011;16191;49.548;8.658;2023-06-22T13:50:46;11.93;;;4.10;;
29120;SDS011;16191;49.548;8.658;2023-06-22T13:53:13;9.93;;;4.20;;
29120;SDS011;16191;49.548;8.658;2023-06-22T13:55:39;22.48;;;4.38;;
29120;SDS011;16191;49.548;8.658;2023-06-22T13:58:06;13.93;;;3.72;;
29120;SDS011;16191;49.548;8.658;2023-06-22T14:00:33;13.77;;;4.18;;
29120;SDS011;16191;49.548;8.658;2023-06-22T14:02:59;14.27;;;3.95;;
29120;SDS011;16191;49.548;8.658;2023-06-22T14:05:26;8.88;;;3.95;;
29120;SDS011;16191;49.548;8.658;2023-06-22T14:07:53;11.65;;;3.85;;
29120;SDS011;16191;49.548;8.658;2023-06-22T14:10:19;11.05;;;3.88;;
29120;SDS011;16191;49.548;8.658;2023-06-22T14:12:46;14.98;;;4.13;;
29120;SDS011;16191;49.548;8.658;2023-06-22T14:15:12;11.18;;;3.58;;
29120;SDS011;16191;49.548;8.658;2023-06-22T14:17:39;16.30;;;4.28;;
29120;SDS011;16191;49.548;8.658;2023-06-22T14:20:06;14.27;;;4.57;;
29120;SDS011;16191;49.548;8.658;2023-06-22T14:22:34;12.68;;;4.45;;
29120;SDS011;16191;49.548;8.658;2023-06-22T14:25:01;11.52;;;4.40;;
29120;SDS011;16191;49.548;8.658;2023-06-22T14:27:29;10.60;;;4.15;;
29120;SDS011;16191;49.548;8.658;2023-06-22T14:29:56;16.40;;;4.55;;
29120;SDS011;16191;49.548;8.658;2023-06-22T14:32:22;13.40;;;3.75;;
29120;SDS011;16191;49.548;8.658;2023-06-22T14:34:49;11.48;;;3.80;;
29120;SDS011;16191;49.548;8.658;2023-06-22T14:37:16;8.90;;;4.00;;
29120;SDS011;16191;49.548;8.658;2023-06-22T14:39:42;17.15;;;4.25;;
29120;SDS011;16191;49.548;8.658;2023-06-22T14:42:09;13.13;;;4.50;;
29120;SDS011;16191;49.548;8.658;2023-06-22T14:44:36;11.88;;;4.38;;
29120;SDS011;16191;49.548;8.658;2023-06-22T14:47:02;19.05;;;4.13;;
29120;SDS011;16191;49.548;8.658;2023-06-22T14:49:29;18.13;;;4.45;;
29120;SDS011;16191;49.548;8.658;2023-06-22T14:51:56;15.63;;;4.47;;
29120;SDS011;16191;49.548;8.658;2023-06-22T14:54:23;10.40;;;3.95;;
29120;SDS011;16191;49.548;8.658;2023-06-22T14:56:50;11.63;;;3.92;;
29120;SDS011;16191;49.548;8.658;2023-06-22T14:59:16;13.65;;;4.63;;